createdAt,value
2022-09-10T00:01:40.745Z,100999.38
2022-09-10T00:04:12.312Z,101015.53
2022-09-10T00:06:41.032Z,101010.72
2022-09-10T00:09:10.685Z,101005.91
2022-09-10T00:11:42.047Z,100999.69
2022-09-10T00:14:15.592Z,100995.13
2022-09-10T00:16:45.367Z,100989.75
2022-09-10T00:19:14.930Z,101006.19
2022-09-10T00:21:44.486Z,100972.22
2022-09-10T00:24:13.829Z,100992.66
2022-09-10T00:26:43.892Z,100994.88
2022-09-10T00:29:15.990Z,100996.59
2022-09-10T00:31:44.958Z,101003.97
2022-09-10T00:34:14.697Z,101011.31
2022-09-10T00:36:44.808Z,100987.63
2022-09-10T00:39:16.160Z,101004.94
2022-09-10T00:41:49.239Z,101007.50
2022-09-10T00:44:57.081Z,101015.28
2022-09-10T00:47:29.256Z,100990.94
2022-09-10T00:50:04.558Z,100982.63
2022-09-10T00:52:39.410Z,101006.84
2022-09-10T00:55:10.543Z,101012.69
2022-09-10T00:57:42.373Z,101004.19
2022-09-10T01:00:14.047Z,101000.47
2022-09-10T01:02:43.492Z,100997.25
2022-09-10T01:05:13.010Z,100995.31
2022-09-10T01:07:42.980Z,100999.31
2022-09-10T01:10:15.647Z,100989.56
2022-09-10T01:13:06.296Z,100994.47
2022-09-10T01:15:47.077Z,100987.22
2022-09-10T01:18:28.398Z,100987.22
2022-09-10T01:21:07.154Z,100973.13
2022-09-10T01:24:15.164Z,100988.72
2022-09-10T01:27:26.152Z,100986.25
2022-09-10T01:30:01.394Z,100984.59
2022-09-10T01:32:40.449Z,100973.66
2022-09-10T01:35:17.047Z,100989.75
2022-09-10T01:37:50.489Z,100975.56
2022-09-10T01:40:20.262Z,100981.56
2022-09-10T01:42:50.429Z,100978.88
2022-09-10T01:45:19.235Z,100978.13
2022-09-10T01:48:13.653Z,100986.88
2022-09-10T01:50:54.136Z,100978.25
2022-09-10T01:53:44.204Z,100987.22
2022-09-10T01:56:24.806Z,100980.59
2022-09-10T01:59:01.195Z,100986.16
2022-09-10T02:01:45.944Z,100980.41
2022-09-10T02:04:16.228Z,100977.81
2022-09-10T02:06:49.327Z,100967.56
2022-09-10T02:09:20.254Z,100950.38
2022-09-10T02:11:51.612Z,100964.53
2022-09-10T02:14:36.876Z,100970.31
2022-09-10T02:17:23.397Z,100952.81
2022-09-10T02:19:53.906Z,100919.53
2022-09-10T02:22:24.409Z,100893.06
2022-09-10T02:24:53.630Z,100929.78
2022-09-10T02:27:24.212Z,100955.50
2022-09-10T02:29:55.464Z,100947.28
2022-09-10T02:32:24.601Z,100935.47
2022-09-10T02:34:53.878Z,100935.38
2022-09-10T02:37:22.672Z,100935.09
2022-09-10T02:39:51.543Z,100926.47
2022-09-10T02:42:20.420Z,100930.63
2022-09-10T02:44:49.871Z,100925.72
2022-09-10T02:47:20.453Z,100927.19
2022-09-10T02:49:49.239Z,100918.88
2022-09-10T02:52:18.401Z,100921.91
2022-09-10T02:54:47.774Z,100903.31
2022-09-10T02:57:18.061Z,100920.19
2022-09-10T02:59:46.758Z,100919.97
2022-09-10T03:02:15.656Z,100901.78
2022-09-10T03:04:45.732Z,100916.75
2022-09-10T03:07:17.244Z,100917.06
2022-09-10T03:09:46.701Z,100913.13
2022-09-10T03:12:16.379Z,100874.03
2022-09-10T03:14:45.169Z,100912.06
2022-09-10T03:17:14.209Z,100925.53
2022-09-10T03:19:43.727Z,100918.47
2022-09-10T03:22:13.714Z,100912.25
2022-09-10T03:24:43.273Z,100904.59
2022-09-10T03:27:12.180Z,100902.13
2022-09-10T03:29:41.319Z,100906.50
2022-09-10T03:32:10.079Z,100893.47
2022-09-10T03:34:41.237Z,100909.91
2022-09-10T03:37:10.029Z,100895.19
2022-09-10T03:39:40.132Z,100888.81
2022-09-10T03:42:08.987Z,100905.84
2022-09-10T03:44:37.889Z,100912.06
2022-09-10T03:47:07.708Z,100907.47
2022-09-10T03:49:36.394Z,100894.25
2022-09-10T03:52:05.439Z,100892.00
2022-09-10T03:54:37.546Z,100906.59
2022-09-10T03:57:08.532Z,100834.06
2022-09-10T03:59:37.893Z,100902.44
2022-09-10T04:02:06.789Z,100892.09
2022-09-10T04:04:37.443Z,100819.53
2022-09-10T04:07:07.127Z,100902.97
2022-09-10T04:09:36.222Z,100903.09
2022-09-10T04:12:05.331Z,100901.06
2022-09-10T04:14:37.826Z,100891.56
2022-09-10T04:17:06.638Z,100868.41
2022-09-10T04:19:35.516Z,100885.75
2022-09-10T04:22:04.395Z,100892.63
2022-09-10T04:24:34.098Z,100864.88
2022-09-10T04:27:03.103Z,100845.53
2022-09-10T04:29:32.401Z,100794.28
2022-09-10T04:32:03.407Z,100869.00
2022-09-10T04:34:34.240Z,100866.97
2022-09-10T04:37:04.425Z,100865.44
2022-09-10T04:39:35.198Z,100859.31
2022-09-10T04:42:04.191Z,100866.06
2022-09-10T04:44:34.038Z,100863.19
2022-09-10T04:47:06.325Z,100836.56
2022-09-10T04:49:35.514Z,100847.16
2022-09-10T04:52:05.310Z,100839.91
2022-09-10T04:54:34.677Z,100815.06
2022-09-10T04:57:03.478Z,100855.28
2022-09-10T04:59:32.677Z,100856.63
2022-09-10T05:02:02.217Z,100840.22
2022-09-10T05:04:33.215Z,100854.28
2022-09-10T05:07:02.222Z,100858.50
2022-09-10T05:09:31.521Z,100819.06
2022-09-10T05:12:03.885Z,100849.09
2022-09-10T05:14:33.590Z,100826.31
2022-09-10T05:17:03.406Z,100850.97
2022-09-10T05:19:34.204Z,100829.94
2022-09-10T05:22:07.253Z,100839.75
2022-09-10T05:24:36.194Z,100836.78
2022-09-10T05:27:07.134Z,100843.38
2022-09-10T05:29:36.104Z,100840.19
2022-09-10T05:32:05.173Z,100849.34
2022-09-10T05:34:36.588Z,100838.69
2022-09-10T05:37:05.915Z,100840.19
2022-09-10T05:39:35.610Z,100847.84
2022-09-10T05:42:04.755Z,100844.06
2022-09-10T05:44:33.667Z,100830.06
2022-09-10T05:47:02.699Z,100845.38
2022-09-10T05:49:31.593Z,100841.75
2022-09-10T05:52:04.418Z,100764.94
2022-09-10T05:54:33.363Z,100846.00
2022-09-10T05:57:02.614Z,100843.75
2022-09-10T05:59:33.247Z,100853.03
2022-09-10T06:02:02.133Z,100856.03
2022-09-10T06:04:32.132Z,100847.63
2022-09-10T06:07:01.944Z,100851.78
2022-09-10T06:09:32.092Z,100846.09
2022-09-10T06:12:07.474Z,100835.50
2022-09-10T06:14:37.634Z,100838.31
2022-09-10T06:17:06.532Z,100839.06
2022-09-10T06:19:35.332Z,100840.91
2022-09-10T06:22:04.131Z,100842.91
2022-09-10T06:24:39.549Z,100847.56
2022-09-10T06:27:09.790Z,100843.66
2022-09-10T06:29:38.604Z,100845.41
2022-09-10T06:32:09.967Z,100847.63
2022-09-10T06:34:41.535Z,100824.72
2022-09-10T06:37:13.753Z,100853.16
2022-09-10T06:39:44.253Z,100839.66
2022-09-10T06:42:16.643Z,100837.84
2022-09-10T06:45:00.351Z,100835.97
2022-09-10T06:48:34.742Z,100830.09
2022-09-10T06:50:43.561Z,100843.53
2022-09-10T06:53:14.679Z,100835.22
2022-09-10T06:55:46.747Z,100832.00
2022-09-10T06:58:16.424Z,100814.03
2022-09-10T07:00:45.759Z,100834.16
2022-09-10T07:03:16.968Z,100841.38
2022-09-10T07:05:46.947Z,100834.56
2022-09-10T07:08:21.133Z,100828.75
2022-09-10T07:11:01.443Z,100833.38
2022-09-10T07:13:31.935Z,100832.50
2022-09-10T07:16:03.590Z,100835.91
2022-09-10T07:18:34.475Z,100822.47
2022-09-10T07:21:11.871Z,100835.50
2022-09-10T07:23:47.262Z,100844.72
2022-09-10T07:26:20.041Z,100771.91
2022-09-10T07:28:55.690Z,100849.63
2022-09-10T07:31:28.151Z,100835.00
2022-09-10T07:33:58.747Z,100818.00
2022-09-10T07:36:27.618Z,100844.78
2022-09-10T07:39:01.723Z,100825.69
2022-09-10T07:41:36.218Z,100844.34
2022-09-10T07:44:08.734Z,100819.63
2022-09-10T07:46:41.274Z,100835.00
2022-09-10T07:49:13.272Z,100821.41
2022-09-10T07:51:46.673Z,100830.22
2022-09-10T07:54:17.128Z,100770.28
2022-09-10T07:56:53.424Z,100787.41
2022-09-10T07:59:22.470Z,100829.59
2022-09-10T08:02:00.359Z,100829.16
2022-09-10T08:04:36.405Z,100819.28
2022-09-10T08:07:08.240Z,100819.66
2022-09-10T08:09:40.095Z,100814.09
2022-09-10T08:12:13.362Z,100818.72
2022-09-10T08:14:43.632Z,100822.31
2022-09-10T08:17:12.691Z,100818.44
2022-09-10T08:19:45.085Z,100810.31
2022-09-10T08:22:15.142Z,100820.41
2022-09-10T08:24:51.336Z,100812.47
2022-09-10T08:27:21.425Z,100811.69
2022-09-10T08:29:50.860Z,100822.41
2022-09-10T08:32:20.796Z,100816.19
2022-09-10T08:34:49.762Z,100808.75
2022-09-10T08:37:19.342Z,100810.19
2022-09-10T08:39:48.417Z,100814.28
2022-09-10T08:42:27.035Z,100807.72
2022-09-10T08:45:02.697Z,100794.06
2022-09-10T08:47:40.936Z,100798.31
2022-09-10T08:50:23.989Z,100733.88
2022-09-10T08:52:58.103Z,100786.34
2022-09-10T08:55:32.687Z,100799.84
2022-09-10T08:58:15.180Z,100773.16
2022-09-10T09:00:45.578Z,100806.63
2022-09-10T09:03:23.965Z,100796.81
2022-09-10T09:05:56.195Z,100799.53
2022-09-10T09:08:35.076Z,100796.22
2022-09-10T09:11:15.446Z,100780.34
2022-09-10T09:13:59.446Z,100785.28
2022-09-10T09:16:45.267Z,100789.66
2022-09-10T09:19:22.652Z,100787.31
2022-09-10T09:21:53.248Z,100791.75
2022-09-10T09:24:26.811Z,100789.31
2022-09-10T09:27:04.742Z,100776.03
2022-09-10T09:29:43.679Z,100785.72
2022-09-10T09:32:19.048Z,100759.03
2022-09-10T09:34:52.143Z,100780.41
2022-09-10T09:37:25.243Z,100778.28
2022-09-10T09:40:06.778Z,100757.50
2022-09-10T09:42:46.009Z,100772.59
2022-09-10T09:45:26.476Z,100772.94
2022-09-10T09:47:55.925Z,100764.94
2022-09-10T09:50:26.193Z,100772.75
2022-09-10T09:52:57.456Z,100748.66
2022-09-10T09:55:33.016Z,100725.78
2022-09-10T09:58:34.688Z,100726.44
2022-09-10T10:01:17.299Z,100748.75
2022-09-10T10:03:54.576Z,100768.94
2022-09-10T10:06:28.351Z,100748.84
2022-09-10T10:09:02.921Z,100583.84
2022-09-10T10:11:45.554Z,100759.56
2022-09-10T10:14:23.454Z,100752.88
2022-09-10T10:17:00.029Z,100737.69
2022-09-10T10:19:32.819Z,100723.38
2022-09-10T10:22:22.939Z,100749.03
2022-09-10T10:24:54.096Z,100738.56
2022-09-10T10:27:30.086Z,100750.53
2022-09-10T10:30:01.677Z,100740.22
2022-09-10T10:32:42.646Z,100736.34
2022-09-10T10:35:32.831Z,100732.47
2022-09-10T10:38:21.354Z,100715.88
2022-09-10T10:41:05.547Z,100727.72
2022-09-10T10:43:46.018Z,100718.03
2022-09-10T10:46:20.814Z,100722.81
2022-09-10T10:49:04.034Z,100715.63
2022-09-10T10:51:44.655Z,100669.44
2022-09-10T10:54:28.547Z,100715.56
2022-09-10T10:57:02.949Z,100708.78
2022-09-10T10:59:45.261Z,100709.22
2022-09-10T11:02:17.204Z,100680.81
2022-09-10T11:04:51.469Z,100700.78
2022-09-10T11:07:27.424Z,100700.41
2022-09-10T11:10:02.637Z,100697.69
2022-09-10T11:12:35.546Z,100694.56
2022-09-10T11:15:18.879Z,100697.81
2022-09-10T11:17:52.161Z,100701.25
2022-09-10T11:20:30.235Z,100686.91
2022-09-10T11:23:06.417Z,100683.22
2022-09-10T11:25:40.775Z,100675.75
2022-09-10T11:28:14.826Z,100679.63
2022-09-10T11:30:49.148Z,100667.38
2022-09-10T11:33:24.510Z,100664.16
2022-09-10T11:36:01.487Z,100675.81
2022-09-10T11:38:39.133Z,100665.25
2022-09-10T11:41:13.460Z,100659.16
2022-09-10T11:43:47.029Z,100657.09
2022-09-10T11:46:20.012Z,100649.53
2022-09-10T11:48:54.956Z,100646.53
2022-09-10T11:51:30.626Z,100646.06
2022-09-10T11:53:59.585Z,100641.06
2022-09-10T11:56:49.468Z,100592.59
2022-09-10T11:59:39.383Z,100645.13
2022-09-10T12:02:27.051Z,100547.66
2022-09-10T12:05:04.343Z,100637.22
2022-09-10T12:07:44.515Z,100644.63
2022-09-10T12:10:20.956Z,100645.09
2022-09-10T12:12:51.063Z,100627.75
2022-09-10T12:15:21.594Z,100635.88
2022-09-10T12:17:55.584Z,100626.66
2022-09-10T12:20:29.552Z,100622.75
2022-09-10T12:23:00.526Z,100611.94
2022-09-10T12:25:34.871Z,100609.63
2022-09-10T12:28:08.298Z,100608.53
2022-09-10T12:31:02.895Z,100601.38
2022-09-10T12:34:15.984Z,100601.16
2022-09-10T12:37:19.747Z,100599.28
2022-09-10T12:39:50.523Z,100607.56
2022-09-10T12:42:33.808Z,100599.44
2022-09-10T12:45:02.466Z,100600.28
2022-09-10T12:47:42.474Z,100591.28
2022-09-10T12:50:31.305Z,100560.44
2022-09-10T12:53:38.738Z,100597.22
2022-09-10T12:56:43.587Z,100589.97
2022-09-10T12:59:34.964Z,100558.00
2022-09-10T13:02:04.769Z,100578.06
2022-09-10T13:04:36.376Z,100582.31
2022-09-10T13:07:07.730Z,100583.41
2022-09-10T13:09:40.113Z,100587.50
2022-09-10T13:12:21.195Z,100585.81
2022-09-10T13:14:53.837Z,100571.28
2022-09-10T13:18:28.070Z,100573.44
2022-09-10T13:20:58.768Z,100566.03
2022-09-10T13:23:48.702Z,100554.38
2022-09-10T13:26:50.702Z,100546.72
2022-09-10T13:29:33.529Z,100545.34
2022-09-10T13:32:07.214Z,100546.81
2022-09-10T13:35:13.996Z,100533.44
2022-09-10T13:38:00.140Z,100493.06
2022-09-10T13:40:58.592Z,100541.75
2022-09-10T13:43:47.721Z,100528.09
2022-09-10T13:46:26.519Z,100530.41
2022-09-10T13:49:06.758Z,100518.47
2022-09-10T13:51:39.998Z,100502.06
2022-09-10T13:54:25.473Z,100512.66
2022-09-10T13:56:55.911Z,100510.47
2022-09-10T13:59:30.941Z,100488.75
2022-09-10T14:02:01.076Z,100503.53
2022-09-10T14:04:32.099Z,100488.06
2022-09-10T14:07:08.121Z,100484.28
2022-09-10T14:09:38.167Z,100481.56
2022-09-10T14:12:09.693Z,100502.16
2022-09-10T14:14:43.169Z,100502.91
2022-09-10T14:17:16.442Z,100499.09
2022-09-10T14:19:49.424Z,100494.63
2022-09-10T14:22:22.399Z,100481.44
2022-09-10T14:24:53.680Z,100491.63
2022-09-10T14:27:26.078Z,100472.97
2022-09-10T14:29:57.427Z,100475.41
2022-09-10T14:32:30.051Z,100473.13
2022-09-10T14:34:59.500Z,100465.47
2022-09-10T14:37:38.137Z,100465.97
2022-09-10T14:40:16.864Z,100467.63
2022-09-10T14:42:46.870Z,100451.84
2022-09-10T14:45:42.014Z,100460.78
2022-09-10T14:48:29.705Z,100437.66
2022-09-10T14:51:11.022Z,100431.75
2022-09-10T14:53:40.744Z,100442.66
2022-09-10T14:56:24.376Z,100445.97
2022-09-10T14:59:01.353Z,100427.56
2022-09-10T15:01:31.308Z,100433.91
2022-09-10T15:04:01.492Z,100436.13
2022-09-10T15:06:31.743Z,100434.13
2022-09-10T15:09:01.693Z,100413.06
2022-09-10T15:11:30.833Z,100418.56
2022-09-10T15:14:00.914Z,100411.91
2022-09-10T15:16:30.362Z,100396.66
2022-09-10T15:19:03.692Z,100416.44
2022-09-10T15:21:32.393Z,100421.06
2022-09-10T15:24:01.383Z,100343.28
2022-09-10T15:26:30.265Z,100411.75
2022-09-10T15:28:59.377Z,100416.44
2022-09-10T15:31:32.473Z,100411.34
2022-09-10T15:34:03.027Z,100401.91
2022-09-10T15:36:31.833Z,100398.63
2022-09-10T15:39:00.755Z,100386.47
2022-09-10T15:41:29.826Z,100404.97
2022-09-10T15:43:59.228Z,100381.09
2022-09-10T15:46:28.055Z,100401.41
2022-09-10T15:48:59.574Z,100397.09
2022-09-10T15:51:29.745Z,100378.69
2022-09-10T15:54:02.955Z,100386.75
2022-09-10T15:56:34.003Z,100373.09
2022-09-10T15:59:02.948Z,100374.09
2022-09-10T16:01:31.746Z,100365.13
2022-09-10T16:04:03.153Z,100320.81
2022-09-10T16:06:36.873Z,100365.13
2022-09-10T16:09:09.174Z,100361.69
2022-09-10T16:11:41.142Z,100359.59
2022-09-10T16:14:13.316Z,100349.41
2022-09-10T16:16:42.599Z,100352.03
2022-09-10T16:19:13.126Z,100356.91
2022-09-10T16:21:43.527Z,100355.09
2022-09-10T16:24:12.224Z,100349.22
2022-09-10T16:26:43.666Z,100344.72
2022-09-10T16:29:15.753Z,100337.16
2022-09-10T16:31:46.110Z,100334.47
2022-09-10T16:34:18.496Z,100331.66
2022-09-10T16:36:51.053Z,100324.69
2022-09-10T16:39:20.668Z,100326.19
2022-09-10T16:41:50.860Z,100328.03
2022-09-10T16:44:20.422Z,100304.28
2022-09-10T16:46:49.647Z,100289.69
2022-09-10T16:49:19.839Z,100244.84
2022-09-10T16:51:50.224Z,100300.41
2022-09-10T16:54:21.391Z,100302.59
2022-09-10T16:56:51.386Z,100290.09
2022-09-10T16:59:22.266Z,100294.31
2022-09-10T17:01:52.740Z,100283.31
2022-09-10T17:04:28.468Z,100292.47
2022-09-10T17:06:59.411Z,100279.19
2022-09-10T17:09:28.365Z,100269.75
2022-09-10T17:11:57.118Z,100276.44
2022-09-10T17:14:25.896Z,100257.13
2022-09-10T17:16:54.806Z,100270.25
2022-09-10T17:19:27.616Z,100267.13
2022-09-10T17:21:58.165Z,100253.31
2022-09-10T17:24:27.970Z,100258.94
2022-09-10T17:26:56.955Z,100269.72
2022-09-10T17:29:27.066Z,100288.06
2022-09-10T17:31:57.524Z,100277.41
2022-09-10T17:34:28.413Z,100272.41
2022-09-10T17:36:58.642Z,100270.88
2022-09-10T17:39:29.396Z,100260.47
2022-09-10T17:41:59.029Z,100265.09
2022-09-10T17:44:28.167Z,100272.25
2022-09-10T17:46:57.050Z,100256.66
2022-09-10T17:49:26.036Z,100246.88
2022-09-10T17:51:54.832Z,100238.22
2022-09-10T17:54:25.077Z,100215.94
2022-09-10T17:56:54.420Z,100184.72
2022-09-10T17:59:25.173Z,100217.47
2022-09-10T18:01:54.131Z,100218.44
2022-09-10T18:04:23.502Z,100220.41
2022-09-10T18:06:52.718Z,100205.13
2022-09-10T18:09:23.687Z,100214.63
2022-09-10T18:11:56.442Z,100186.19
2022-09-10T18:14:26.332Z,100209.03
2022-09-10T18:16:55.990Z,100199.16
2022-09-10T18:19:25.489Z,100188.03
2022-09-10T18:21:54.485Z,100178.25
2022-09-10T18:24:25.669Z,100185.66
2022-09-10T18:26:56.662Z,100150.47
2022-09-10T18:29:27.107Z,100180.66
2022-09-10T18:31:57.828Z,100175.47
2022-09-10T18:34:28.212Z,100179.44
2022-09-10T18:36:59.914Z,100166.78
2022-09-10T18:39:30.809Z,100154.94
2022-09-10T18:42:02.597Z,100157.94
2022-09-10T18:44:34.586Z,100088.72
2022-09-10T18:47:11.152Z,100153.19
2022-09-10T18:49:47.402Z,100149.25
2022-09-10T18:52:17.134Z,100167.28
2022-09-10T18:54:46.841Z,100166.72
2022-09-10T18:57:17.270Z,100168.16
2022-09-10T18:59:46.373Z,100119.00
2022-09-10T19:02:15.923Z,100089.38
2022-09-10T19:05:07.472Z,100147.84
2022-09-10T19:07:34.164Z,100145.09
2022-09-10T19:10:05.080Z,100133.81
2022-09-10T19:12:35.419Z,100131.56
2022-09-10T19:15:04.321Z,100116.38
2022-09-10T19:17:33.286Z,100127.41
2022-09-10T19:20:02.554Z,100125.41
2022-09-10T19:22:31.673Z,100116.69
2022-09-10T19:25:01.559Z,100100.00
2022-09-10T19:27:32.368Z,100099.25
2022-09-10T19:30:02.649Z,100098.59
2022-09-10T19:32:32.038Z,100096.63
2022-09-10T19:35:01.408Z,100083.94
2022-09-10T19:37:31.664Z,100102.81
2022-09-10T19:40:00.592Z,100105.28
2022-09-10T19:42:29.937Z,100091.81
2022-09-10T19:44:59.048Z,100097.50
2022-09-10T19:47:29.446Z,100081.97
2022-09-10T19:49:59.332Z,100108.34
2022-09-10T19:52:28.071Z,100119.94
2022-09-10T19:54:57.059Z,100110.72
2022-09-10T19:57:26.518Z,100093.03
2022-09-10T19:59:56.892Z,100097.81
2022-09-10T20:02:25.829Z,100108.56
2022-09-10T20:04:56.486Z,100098.13
2022-09-10T20:07:25.805Z,100094.84
2022-09-10T20:09:55.107Z,100102.53
2022-09-10T20:12:24.511Z,100066.97
2022-09-10T20:14:53.373Z,100101.56
2022-09-10T20:17:22.289Z,100075.47
2022-09-10T20:19:51.606Z,100096.63
2022-09-10T20:22:21.883Z,100035.00
2022-09-10T20:24:50.667Z,100084.38
2022-09-10T20:27:19.493Z,100082.00
2022-09-10T20:29:48.246Z,100061.06
2022-09-10T20:32:17.124Z,100067.22
2022-09-10T20:34:45.958Z,100060.22
2022-09-10T20:37:14.750Z,100061.31
2022-09-10T20:39:48.555Z,100048.97
2022-09-10T20:42:17.917Z,100054.31
2022-09-10T20:44:47.120Z,100037.19
2022-09-10T20:47:15.908Z,100045.66
2022-09-10T20:49:45.050Z,100047.31
2022-09-10T20:52:14.031Z,100039.97
2022-09-10T20:54:44.465Z,100046.66
2022-09-10T20:57:13.251Z,100041.78
2022-09-10T20:59:42.341Z,100042.81
2022-09-10T21:02:13.141Z,100040.59
2022-09-10T21:04:42.417Z,100046.78
2022-09-10T21:07:11.229Z,100035.41
2022-09-10T21:09:40.083Z,100046.09
2022-09-10T21:12:11.457Z,100027.38
2022-09-10T21:14:40.201Z,100001.38
2022-09-10T21:17:09.958Z,100030.47
2022-09-10T21:19:38.755Z,100043.66
2022-09-10T21:22:07.784Z,100033.84
2022-09-10T21:24:36.467Z,100033.00
2022-09-10T21:27:05.508Z,100024.00
2022-09-10T21:29:36.255Z,99989.06
2022-09-10T21:32:04.994Z,99981.16
2022-09-10T21:34:34.087Z,99985.28
2022-09-10T21:37:03.232Z,99994.53
2022-09-10T21:39:32.040Z,99979.72
2022-09-10T21:42:01.122Z,99973.88
2022-09-10T21:44:31.313Z,99982.88
2022-09-10T21:47:01.261Z,99964.50
2022-09-10T21:49:30.131Z,99970.66
2022-09-10T21:51:59.428Z,99946.50
2022-09-10T21:54:28.303Z,99946.59
2022-09-10T21:56:57.190Z,99951.72
2022-09-10T21:59:26.854Z,99961.88
2022-09-10T22:01:55.967Z,99950.84
2022-09-10T22:04:26.100Z,99933.69
2022-09-10T22:06:55.103Z,99953.13
2022-09-10T22:09:24.429Z,99952.28
2022-09-10T22:11:54.449Z,99943.34
2022-09-10T22:14:24.797Z,99941.34
2022-09-10T22:16:55.122Z,99940.44
2022-09-10T22:19:27.378Z,99922.84
2022-09-10T22:21:56.935Z,99922.38
2022-09-10T22:24:26.296Z,99934.38
2022-09-10T22:26:55.252Z,99952.34
2022-09-10T22:29:25.271Z,99954.66
2022-09-10T22:31:54.029Z,99944.28
2022-09-10T22:34:23.167Z,99933.69
2022-09-10T22:36:53.281Z,99932.03
2022-09-10T22:39:23.314Z,99821.94
2022-09-10T22:41:52.760Z,99919.19
2022-09-10T22:44:23.301Z,99919.91
2022-09-10T22:46:52.056Z,99901.84
2022-09-10T22:49:21.979Z,99899.78
2022-09-10T22:51:50.871Z,99882.03
2022-09-10T22:54:24.206Z,99884.47
2022-09-10T22:56:52.939Z,99892.25
2022-09-10T22:59:21.589Z,99883.28
2022-09-10T23:01:50.578Z,99872.78
2022-09-10T23:04:19.349Z,99876.94
2022-09-10T23:06:48.194Z,99898.00
2022-09-10T23:09:18.345Z,99882.03
2022-09-10T23:11:48.555Z,99871.75
2022-09-10T23:14:20.042Z,99873.06
2022-09-10T23:16:51.962Z,99828.41
2022-09-10T23:19:23.255Z,99870.53
2022-09-10T23:21:54.980Z,99881.41
2022-09-10T23:24:26.468Z,99866.19
2022-09-10T23:26:58.484Z,99857.91
2022-09-10T23:29:28.267Z,99860.09
2022-09-10T23:31:58.443Z,99858.72
2022-09-10T23:34:27.964Z,99848.91
2022-09-10T23:36:57.283Z,99867.16
2022-09-10T23:39:27.259Z,99857.47
2022-09-10T23:41:59.014Z,99852.91
2022-09-10T23:44:28.705Z,99855.59
2022-09-10T23:46:58.279Z,99838.03
2022-09-10T23:49:27.736Z,99834.31
2022-09-10T23:51:56.702Z,99838.09
2022-09-10T23:54:25.526Z,99844.03
2022-09-10T23:56:58.206Z,99815.06
2022-09-10T23:59:27.120Z,99824.34
